Time;durP1;ratioP1;P1;durP2;ratioP2;P2;SDS_P1;SDS_P2;PMS_P1;PMS_P2;Temp;Humidity;BMP_temperature;BMP_pressure;BME280_temperature;BME280_humidity;BME280_pressure;Samples;Min_cycle;Max_cycle;Signal;HPM_P1;HPM_P2
2023/12/12 00:00:32;;;;;;;28.80;3.30;;;8.80;99.90;;;;;;5037290;28;20176;-86
2023/12/12 00:02:58;;;;;;;28.58;3.15;;;8.80;99.90;;;;;;5055415;28;20244;-86
2023/12/12 00:05:23;;;;;;;29.93;3.10;;;8.80;99.90;;;;;;5054909;28;20594;-86
2023/12/12 00:07:49;;;;;;;30.57;3.10;;;8.80;99.90;;;;;;5056249;28;20904;-86
2023/12/12 00:10:15;;;;;;;37.03;4.10;;;9.00;99.90;;;;;;5038714;28;20169;-86
2023/12/12 00:12:41;;;;;;;27.00;3.10;;;9.10;99.90;;;;;;5038928;28;20576;-86
2023/12/12 00:15:07;;;;;;;27.37;3.00;;;9.00;99.90;;;;;;5056237;28;20180;-86
2023/12/12 00:17:32;;;;;;;34.47;3.20;;;9.00;99.90;;;;;;5054678;28;20192;-86
2023/12/12 00:19:58;;;;;;;28.70;2.93;;;9.10;99.90;;;;;;5055281;28;20419;-86
2023/12/12 00:22:24;;;;;;;26.23;2.60;;;9.10;99.90;;;;;;5054501;28;20149;-86
2023/12/12 00:24:49;;;;;;;35.40;3.73;;;9.10;99.90;;;;;;5054240;28;20203;-86
2023/12/12 00:27:15;;;;;;;27.80;3.80;;;9.00;99.90;;;;;;5054276;28;20562;-86
2023/12/12 00:29:41;;;;;;;31.13;3.70;;;9.00;99.90;;;;;;5054247;28;20247;-86
2023/12/12 00:32:07;;;;;;;30.47;3.10;;;9.00;99.90;;;;;;5054383;28;20222;-85
2023/12/12 00:34:36;;;;;;;30.50;2.70;;;8.90;99.90;;;;;;5036321;28;20185;-87
2023/12/12 00:37:02;;;;;;;32.35;3.47;;;8.80;99.90;;;;;;5037181;28;20165;-85
2023/12/12 00:39:28;;;;;;;35.35;3.72;;;8.80;99.90;;;;;;5036671;28;20185;-86
2023/12/12 00:41:54;;;;;;;32.30;3.23;;;8.80;99.90;;;;;;5054498;28;20595;-85
2023/12/12 00:44:19;;;;;;;29.37;4.50;;;8.80;99.90;;;;;;5053940;28;20267;-85
2023/12/12 00:46:45;;;;;;;29.97;3.40;;;8.70;99.90;;;;;;5053747;28;20562;-86
2023/12/12 00:49:11;;;;;;;31.83;3.30;;;8.70;99.90;;;;;;5035997;28;20533;-85
2023/12/12 00:51:37;;;;;;;32.67;2.83;;;8.70;99.90;;;;;;5035991;28;20235;-86
2023/12/12 00:54:02;;;;;;;31.47;3.37;;;8.70;99.90;;;;;;5054196;28;20688;-86
2023/12/12 00:56:28;;;;;;;32.10;2.63;;;8.60;99.90;;;;;;5036763;28;20649;-85
2023/12/12 00:58:54;;;;;;;25.40;2.47;;;8.60;99.90;;;;;;5053991;28;20161;-85
2023/12/12 01:01:19;;;;;;;29.40;2.63;;;8.50;99.90;;;;;;5036864;28;20176;-86
2023/12/12 01:03:45;;;;;;;32.23;3.20;;;8.50;99.90;;;;;;5054092;28;20169;-86
2023/12/12 01:06:24;;;;;;;30.87;2.87;;;8.50;99.90;;;;;;5055061;28;20189;-85
2023/12/12 01:08:51;;;;;;;27.20;2.85;;;8.50;99.90;;;;;;5055162;28;20158;-86
2023/12/12 01:11:19;;;;;;;27.65;2.45;;;8.40;99.90;;;;;;5054514;28;20527;-86
2023/12/12 01:13:46;;;;;;;29.02;2.40;;;8.40;99.90;;;;;;5036722;28;20232;-86
2023/12/12 01:16:12;;;;;;;33.58;3.47;;;8.40;99.90;;;;;;5054437;28;20169;-86
2023/12/12 01:21:06;;;;;;;25.88;2.17;;;8.20;99.90;;;;;;5056004;28;20451;-86
2023/12/12 01:23:52;;;;;;;26.15;2.30;;;8.20;99.90;;;;;;5041208;28;20165;-86
2023/12/12 01:26:19;;;;;;;30.25;2.80;;;8.20;99.90;;;;;;5060145;28;20189;-86
2023/12/12 01:28:45;;;;;;;26.50;3.25;;;8.10;99.90;;;;;;5041629;28;20166;-86
2023/12/12 01:31:11;;;;;;;38.58;3.03;;;8.10;99.90;;;;;;5059387;28;20622;-86
2023/12/12 01:33:37;;;;;;;31.73;3.30;;;8.10;99.90;;;;;;5058902;28;20169;-86
2023/12/12 01:36:03;;;;;;;25.93;1.90;;;8.10;99.90;;;;;;5041233;28;20179;-85
2023/12/12 01:38:31;;;;;;;26.90;2.20;;;8.10;99.90;;;;;;5040682;28;20230;-86
2023/12/12 01:40:57;;;;;;;30.52;2.53;;;8.10;99.90;;;;;;5040532;28;20411;-86
2023/12/12 01:43:27;;;;;;;35.00;3.10;;;8.20;99.90;;;;;;5058881;28;20173;-86
2023/12/12 01:46:02;;;;;;;37.53;2.90;;;8.20;99.90;;;;;;5040905;28;20220;-86
2023/12/12 01:48:32;;;;;;;29.20;3.25;;;8.20;99.90;;;;;;5058886;28;20175;-86
2023/12/12 01:50:59;;;;;;;27.55;2.80;;;8.30;99.90;;;;;;5040734;28;20184;-86
2023/12/12 01:53:32;;;;;;;33.40;3.20;;;8.30;99.90;;;;;;5039931;28;20172;-86
2023/12/12 01:56:03;;;;;;;29.13;2.40;;;8.30;99.90;;;;;;5058326;28;20146;-86
2023/12/12 01:58:29;;;;;;;34.55;3.20;;;8.30;99.90;;;;;;5058210;28;20209;-86
2023/12/12 02:00:55;;;;;;;33.90;2.50;;;8.30;99.90;;;;;;5039943;28;20193;-86
2023/12/12 02:03:23;;;;;;;28.45;2.60;;;8.30;99.90;;;;;;5058073;28;20197;-86
2023/12/12 02:05:49;;;;;;;32.45;3.50;;;8.30;99.90;;;;;;5039773;28;20712;-86
2023/12/12 02:08:16;;;;;;;27.50;2.22;;;8.30;99.90;;;;;;5057629;28;20162;-86
2023/12/12 02:10:42;;;;;;;30.50;2.58;;;8.30;99.90;;;;;;5039873;28;20176;-86
2023/12/12 02:13:07;;;;;;;35.37;2.60;;;8.20;99.90;;;;;;5039968;28;20633;-86
2023/12/12 02:15:33;;;;;;;28.00;2.63;;;8.20;99.90;;;;;;5057755;28;20188;-86
2023/12/12 02:17:59;;;;;;;26.80;1.90;;;8.20;99.90;;;;;;5040025;28;20175;-85
2023/12/12 02:20:24;;;;;;;31.17;3.47;;;8.20;99.90;;;;;;5058154;28;20184;-86
2023/12/12 02:22:50;;;;;;;28.63;2.47;;;8.10;99.90;;;;;;5040209;28;20173;-86
2023/12/12 02:25:18;;;;;;;39.70;3.00;;;8.10;99.90;;;;;;5137621;22;20268;-86
2023/12/12 02:27:43;;;;;;;31.42;3.15;;;8.10;99.90;;;;;;5057820;28;20263;-86
2023/12/12 02:30:11;;;;;;;27.97;2.37;;;8.10;99.90;;;;;;5057147;28;20677;-86
2023/12/12 02:32:37;;;;;;;31.65;3.03;;;8.10;99.90;;;;;;5057766;28;20166;-86
2023/12/12 02:35:03;;;;;;;34.93;2.90;;;8.10;99.90;;;;;;5057513;28;20547;-86
2023/12/12 02:37:28;;;;;;;31.67;2.70;;;8.10;99.90;;;;;;5039847;28;20204;-86
2023/12/12 02:39:54;;;;;;;33.87;2.63;;;8.10;99.90;;;;;;5058432;28;20185;-86
2023/12/12 02:42:20;;;;;;;33.63;3.03;;;8.10;99.90;;;;;;5057888;28;20240;-86
2023/12/12 02:44:45;;;;;;;32.13;3.23;;;8.10;99.90;;;;;;5039566;28;20209;-86
2023/12/12 02:47:11;;;;;;;30.83;2.90;;;8.10;99.90;;;;;;5039661;28;20201;-85
2023/12/12 02:49:37;;;;;;;33.93;3.30;;;8.00;99.90;;;;;;5057944;28;20576;-86
2023/12/12 02:52:02;;;;;;;37.00;3.10;;;8.00;99.90;;;;;;5057119;28;20165;-85
2023/12/12 02:54:28;;;;;;;30.50;2.80;;;8.10;99.90;;;;;;5057423;28;20268;-86
2023/12/12 02:56:54;;;;;;;27.80;2.53;;;8.10;99.90;;;;;;5057751;28;20200;-85
2023/12/12 02:59:20;;;;;;;30.13;2.95;;;8.10;99.90;;;;;;5039506;28;20169;-86
2023/12/12 03:01:48;;;;;;;28.63;2.50;;;8.10;99.90;;;;;;5057357;28;20168;-86
2023/12/12 03:04:13;;;;;;;33.20;3.30;;;8.00;99.90;;;;;;5057308;28;20205;-85
2023/12/12 03:06:39;;;;;;;30.53;3.27;;;8.00;99.90;;;;;;5039594;28;20231;-86
2023/12/12 03:09:04;;;;;;;31.60;3.30;;;8.00;99.90;;;;;;5057409;28;20626;-85
2023/12/12 03:11:30;;;;;;;27.53;2.73;;;8.00;99.90;;;;;;5039374;28;20165;-85
2023/12/12 03:13:56;;;;;;;34.30;3.00;;;8.00;99.90;;;;;;5057410;28;20243;-85
2023/12/12 03:16:22;;;;;;;27.43;2.07;;;8.00;99.90;;;;;;5057306;28;20403;-86
2023/12/12 03:18:48;;;;;;;29.60;3.50;;;8.00;99.90;;;;;;5038885;28;20170;-85
2023/12/12 03:21:13;;;;;;;30.40;3.40;;;8.00;99.90;;;;;;5056725;28;20192;-86
2023/12/12 03:23:39;;;;;;;30.60;2.90;;;8.00;99.90;;;;;;5057053;28;20165;-86
2023/12/12 03:26:08;;;;;;;31.57;2.50;;;8.00;99.90;;;;;;5038997;28;20207;-86
2023/12/12 03:28:35;;;;;;;28.15;2.40;;;8.00;99.90;;;;;;5039476;28;20193;-86
2023/12/12 03:31:05;;;;;;;32.83;2.70;;;8.00;99.90;;;;;;5039052;28;20176;-86
2023/12/12 03:33:31;;;;;;;32.55;2.70;;;8.00;99.90;;;;;;5057025;28;20171;-86
2023/12/12 03:35:57;;;;;;;31.77;2.73;;;8.00;99.90;;;;;;5038985;28;20173;-85
2023/12/12 03:38:22;;;;;;;30.73;3.30;;;8.00;99.90;;;;;;5056600;28;20800;-86
2023/12/12 03:40:48;;;;;;;34.50;3.33;;;8.00;99.90;;;;;;5056618;28;20173;-85
2023/12/12 03:43:14;;;;;;;30.70;2.73;;;7.90;99.90;;;;;;5038910;28;20199;-85
2023/12/12 03:45:40;;;;;;;28.77;2.53;;;7.90;99.90;;;;;;5056451;28;20674;-85
2023/12/12 03:48:06;;;;;;;41.63;3.42;;;7.90;99.90;;;;;;5038827;28;20161;-85
2023/12/12 03:50:32;;;;;;;27.33;2.80;;;7.90;99.90;;;;;;5039143;28;20176;-86
2023/12/12 03:52:58;;;;;;;28.90;2.95;;;7.90;99.90;;;;;;5038693;28;20208;-85
2023/12/12 03:55:23;;;;;;;27.33;2.60;;;7.90;99.90;;;;;;5056693;28;20181;-85
2023/12/12 03:57:49;;;;;;;27.90;2.87;;;7.90;99.90;;;;;;5056567;28;20251;-85
2023/12/12 04:00:15;;;;;;;36.83;3.70;;;7.90;99.90;;;;;;5038467;28;20191;-85
2023/12/12 04:02:41;;;;;;;34.90;3.30;;;7.90;99.90;;;;;;5038345;28;20177;-85
2023/12/12 04:05:10;;;;;;;32.80;3.03;;;7.80;99.90;;;;;;5038594;28;20428;-85
2023/12/12 04:07:39;;;;;;;31.27;3.25;;;7.80;99.90;;;;;;5038185;28;20165;-85
2023/12/12 04:10:06;;;;;;;29.15;4.13;;;7.80;99.90;;;;;;5056276;28;20161;-85
2023/12/12 04:12:35;;;;;;;31.10;3.22;;;7.80;99.90;;;;;;5056790;28;20634;-85
2023/12/12 04:15:02;;;;;;;29.30;3.90;;;7.80;99.90;;;;;;5055679;28;20189;-85
2023/12/12 04:17:29;;;;;;;36.63;3.60;;;7.80;99.90;;;;;;5123384;22;20232;-85
2023/12/12 04:19:54;;;;;;;36.83;3.67;;;7.80;99.90;;;;;;5135258;22;20219;-85
2023/12/12 04:22:20;;;;;;;33.53;4.40;;;7.80;99.90;;;;;;5037468;28;20248;-85
2023/12/12 04:24:46;;;;;;;32.20;3.87;;;7.70;99.90;;;;;;5055365;28;20177;-85
2023/12/12 04:27:11;;;;;;;33.20;3.20;;;7.70;99.90;;;;;;5037005;28;20203;-85
2023/12/12 04:29:37;;;;;;;29.30;3.83;;;7.70;99.90;;;;;;5055559;28;20165;-85
2023/12/12 04:32:04;;;;;;;31.37;3.37;;;7.70;99.90;;;;;;5036946;28;20235;-85
2023/12/12 04:34:34;;;;;;;36.78;3.50;;;7.70;99.90;;;;;;5055331;28;20510;-85
2023/12/12 04:37:02;;;;;;;35.92;4.57;;;7.70;99.90;;;;;;5037365;28;20199;-85
2023/12/12 04:39:28;;;;;;;31.77;3.50;;;7.80;99.90;;;;;;5055499;28;20256;-85
2023/12/12 04:41:54;;;;;;;32.63;4.10;;;7.80;99.90;;;;;;5055051;28;20248;-85
2023/12/12 04:44:19;;;;;;;30.30;3.33;;;7.80;99.90;;;;;;5055390;28;20680;-85
2023/12/12 04:46:45;;;;;;;29.40;3.10;;;7.80;99.90;;;;;;5055020;28;20243;-85
2023/12/12 04:49:10;;;;;;;46.73;4.97;;;7.80;99.90;;;;;;5054947;28;20165;-85
2023/12/12 04:51:36;;;;;;;28.60;3.40;;;7.80;99.90;;;;;;5037111;28;20531;-85
2023/12/12 04:54:02;;;;;;;34.00;3.93;;;7.80;99.90;;;;;;5040457;28;20666;-85
2023/12/12 04:56:27;;;;;;;33.70;3.90;;;7.80;99.90;;;;;;5058790;28;20250;-85
2023/12/12 04:58:53;;;;;;;30.03;4.13;;;7.80;99.90;;;;;;5040995;28;20662;-85
2023/12/12 05:01:19;;;;;;;31.13;3.67;;;7.80;99.90;;;;;;5058568;28;20176;-85
2023/12/12 05:03:45;;;;;;;30.57;3.67;;;7.80;99.90;;;;;;5058473;28;20175;-86
2023/12/12 05:06:11;;;;;;;35.43;4.93;;;7.80;99.90;;;;;;5058974;28;20222;-85
2023/12/12 05:08:37;;;;;;;31.27;4.60;;;7.80;99.90;;;;;;5040838;28;20498;-85
2023/12/12 05:11:04;;;;;;;36.00;2.90;;;7.80;99.90;;;;;;5058907;28;20408;-85
2023/12/12 05:13:30;;;;;;;32.53;3.88;;;7.80;99.90;;;;;;5059085;28;20244;-85
2023/12/12 05:15:56;;;;;;;32.70;3.43;;;7.80;99.90;;;;;;5058903;28;20200;-85
2023/12/12 05:18:21;;;;;;;30.47;3.70;;;7.80;99.90;;;;;;5058783;28;20406;-85
2023/12/12 05:20:48;;;;;;;31.63;3.50;;;7.80;99.90;;;;;;5058287;28;20423;-85
2023/12/12 05:23:15;;;;;;;29.35;3.70;;;7.80;99.90;;;;;;5041480;28;20515;-85
2023/12/12 05:25:41;;;;;;;32.42;3.55;;;7.80;99.90;;;;;;5040921;28;20231;-85
2023/12/12 05:28:07;;;;;;;32.72;3.97;;;7.80;99.90;;;;;;5040657;28;20169;-85
2023/12/12 05:30:32;;;;;;;32.20;3.63;;;7.80;99.90;;;;;;5058493;28;20161;-86
2023/12/12 05:32:58;;;;;;;35.07;4.67;;;7.80;99.90;;;;;;5058088;28;20169;-85
2023/12/12 05:35:24;;;;;;;31.53;3.40;;;7.80;99.90;;;;;;5058332;28;20207;-85
2023/12/12 05:37:49;;;;;;;38.40;3.53;;;7.90;99.90;;;;;;5058141;28;20176;-85
2023/12/12 05:40:18;;;;;;;35.03;3.53;;;7.90;99.90;;;;;;5057957;28;20534;-85
2023/12/12 05:42:44;;;;;;;32.22;3.60;;;7.90;99.90;;;;;;5058367;28;20184;-85
2023/12/12 05:45:10;;;;;;;40.47;5.73;;;7.80;99.90;;;;;;5039897;28;20592;-85
2023/12/12 05:47:35;;;;;;;42.05;4.40;;;7.80;99.90;;;;;;5057936;28;20708;-85
2023/12/12 05:50:02;;;;;;;34.27;5.90;;;7.90;99.90;;;;;;5058008;28;20176;-85
2023/12/12 05:52:28;;;;;;;27.10;2.90;;;7.90;99.90;;;;;;5039771;28;20408;-85
2023/12/12 05:54:54;;;;;;;31.23;3.97;;;7.90;99.90;;;;;;5040123;28;20189;-85
2023/12/12 05:57:20;;;;;;;30.97;3.80;;;7.90;99.90;;;;;;5039578;28;20256;-85
2023/12/12 05:59:46;;;;;;;38.20;3.83;;;7.90;99.90;;;;;;5057282;28;20165;-85
2023/12/12 06:02:12;;;;;;;31.20;3.53;;;8.00;99.90;;;;;;5057931;28;20176;-85
2023/12/12 06:04:38;;;;;;;33.33;3.30;;;7.90;99.90;;;;;;5057520;28;20686;-86
2023/12/12 06:07:05;;;;;;;33.97;4.13;;;8.00;99.90;;;;;;5057000;28;20189;-85
2023/12/12 06:09:41;;;;;;;34.00;4.30;;;8.00;99.90;;;;;;5039548;28;20169;-85
2023/12/12 06:12:07;;;;;;;36.50;4.03;;;8.10;99.90;;;;;;5039183;28;20165;-85
2023/12/12 06:14:33;;;;;;;36.45;4.10;;;8.10;99.90;;;;;;5057393;28;20184;-85
2023/12/12 06:16:58;;;;;;;39.47;4.70;;;8.30;99.90;;;;;;5039274;28;20169;-85
2023/12/12 06:19:27;;;;;;;38.53;3.53;;;8.30;99.90;;;;;;5057324;28;20407;-85
2023/12/12 06:21:53;;;;;;;42.95;3.15;;;8.40;99.90;;;;;;5057166;28;20165;-85
2023/12/12 06:24:19;;;;;;;30.03;3.83;;;8.40;99.90;;;;;;5038711;28;20235;-85
2023/12/12 06:26:45;;;;;;;31.58;3.97;;;8.50;99.90;;;;;;5056786;28;20460;-85
2023/12/12 06:29:12;;;;;;;39.55;3.90;;;8.50;99.90;;;;;;5039507;28;20177;-85
2023/12/12 06:36:34;;;;;;;36.45;4.63;;;8.60;99.90;;;;;;5124805;22;20229;-84
2023/12/12 06:39:00;;;;;;;32.20;4.07;;;8.60;99.90;;;;;;5057987;28;20560;-85
2023/12/12 06:41:25;;;;;;;33.43;3.10;;;8.70;99.90;;;;;;5039325;28;20410;-85
2023/12/12 06:43:51;;;;;;;33.57;4.20;;;8.70;99.90;;;;;;5057111;28;20231;-85
2023/12/12 06:46:20;;;;;;;29.00;5.00;;;8.70;99.90;;;;;;5056931;28;20197;-85
2023/12/12 06:48:47;;;;;;;27.90;3.17;;;8.70;99.90;;;;;;5057188;28;20161;-85
2023/12/12 06:51:13;;;;;;;33.75;3.42;;;8.60;99.90;;;;;;5057946;28;20162;-84
2023/12/12 06:53:39;;;;;;;27.67;3.60;;;8.60;99.90;;;;;;5039465;28;20161;-85
2023/12/12 06:56:05;;;;;;;27.77;3.03;;;8.50;99.90;;;;;;5057529;28;20408;-85
2023/12/12 06:58:34;;;;;;;39.92;4.47;;;8.50;99.90;;;;;;5039679;28;20170;-84
2023/12/12 07:01:03;;;;;;;36.28;4.28;;;8.50;99.90;;;;;;5057567;28;20165;-85
2023/12/12 07:03:29;;;;;;;30.13;3.30;;;8.50;99.90;;;;;;5039124;28;20169;-85
2023/12/12 07:05:54;;;;;;;32.77;3.93;;;8.50;99.90;;;;;;5057155;28;20211;-85
2023/12/12 07:08:21;;;;;;;35.73;4.20;;;8.50;99.90;;;;;;5039184;28;20170;-85
2023/12/12 07:10:47;;;;;;;30.83;3.47;;;8.50;99.90;;;;;;5056861;28;20161;-85
2023/12/12 07:13:13;;;;;;;31.17;3.88;;;8.50;99.90;;;;;;5038633;28;20165;-85
2023/12/12 07:15:39;;;;;;;30.63;3.17;;;8.40;99.90;;;;;;5038425;28;20215;-85
2023/12/12 07:18:10;;;;;;;46.15;4.20;;;8.40;99.90;;;;;;5038757;28;20416;-85
2023/12/12 07:20:38;;;;;;;28.23;3.83;;;8.40;99.90;;;;;;5056746;28;20282;-85
2023/12/12 07:23:04;;;;;;;31.65;5.13;;;8.40;99.90;;;;;;5287591;22;20244;-85
2023/12/12 07:25:30;;;;;;;34.80;4.70;;;8.40;99.90;;;;;;5119610;22;20220;-85
2023/12/12 07:27:56;;;;;;;34.30;4.00;;;8.40;99.90;;;;;;5039212;28;20169;-85
2023/12/12 07:30:22;;;;;;;33.93;4.70;;;8.40;99.90;;;;;;5057272;28;20484;-85
2023/12/12 07:32:47;;;;;;;26.20;3.67;;;8.30;99.90;;;;;;5056681;28;20161;-85
2023/12/12 07:35:13;;;;;;;30.83;4.00;;;8.30;99.90;;;;;;5055995;28;20592;-85
2023/12/12 07:37:39;;;;;;;33.63;4.33;;;8.30;99.90;;;;;;5056485;28;20487;-85
2023/12/12 07:40:06;;;;;;;30.60;3.90;;;8.20;99.90;;;;;;5037996;28;20932;-85
2023/12/12 07:42:31;;;;;;;31.92;4.32;;;8.20;99.90;;;;;;5056574;28;20164;-85
2023/12/12 07:44:57;;;;;;;28.60;3.57;;;8.20;99.90;;;;;;5056420;28;20609;-85
2023/12/12 07:47:24;;;;;;;28.55;4.10;;;8.20;99.90;;;;;;5056134;28;20292;-84
2023/12/12 07:49:49;;;;;;;36.72;4.13;;;8.10;99.90;;;;;;5039150;28;20166;-84
2023/12/12 07:52:15;;;;;;;28.03;3.47;;;8.10;99.90;;;;;;5055888;28;20765;-84
2023/12/12 07:54:49;;;;;;;31.40;3.60;;;8.00;99.90;;;;;;5037484;28;20192;-84
2023/12/12 07:57:15;;;;;;;27.42;2.70;;;8.00;99.90;;;;;;5056518;28;20626;-85
2023/12/12 07:59:42;;;;;;;44.63;5.00;;;8.00;99.90;;;;;;5058323;28;20172;-84
2023/12/12 08:02:08;;;;;;;28.65;3.75;;;8.00;99.90;;;;;;5057468;28;20252;-85
2023/12/12 08:04:33;;;;;;;29.43;4.00;;;8.00;99.90;;;;;;5057849;28;20213;-85
2023/12/12 08:06:59;;;;;;;31.60;4.37;;;7.90;99.90;;;;;;5057366;28;20189;-84
2023/12/12 08:09:28;;;;;;;31.20;4.10;;;7.90;99.90;;;;;;5057643;28;20165;-85
2023/12/12 08:11:54;;;;;;;35.42;4.22;;;7.80;99.90;;;;;;5039855;28;20162;-84
2023/12/12 08:14:20;;;;;;;32.03;4.23;;;7.80;99.90;;;;;;5038622;28;20196;-85
2023/12/12 08:16:45;;;;;;;46.17;5.73;;;7.80;99.90;;;;;;5057167;28;20331;-84
2023/12/12 08:19:11;;;;;;;31.87;3.03;;;7.80;99.90;;;;;;5057053;28;20161;-84
2023/12/12 08:21:38;;;;;;;39.57;4.10;;;7.80;99.90;;;;;;5038479;28;20172;-84
2023/12/12 08:24:05;;;;;;;41.03;4.70;;;7.80;99.90;;;;;;5038627;28;20208;-84
2023/12/12 08:26:42;;;;;;;29.52;3.85;;;7.80;99.90;;;;;;5037666;28;20200;-84
2023/12/12 08:29:12;;;;;;;29.38;4.00;;;7.80;99.90;;;;;;5039100;28;20252;-84
2023/12/12 08:31:42;;;;;;;32.17;4.57;;;7.80;99.90;;;;;;5055884;28;20172;-83
2023/12/12 08:34:08;;;;;;;30.20;4.40;;;7.80;99.90;;;;;;5055638;28;20220;-84
2023/12/12 08:36:34;;;;;;;31.57;4.20;;;7.80;99.90;;;;;;5056404;28;20161;-84
2023/12/12 08:39:00;;;;;;;31.05;3.38;;;7.80;99.90;;;;;;5056287;28;20169;-84
2023/12/12 08:41:31;;;;;;;35.17;4.03;;;7.80;99.90;;;;;;5038433;28;20654;-84
2023/12/12 08:44:00;;;;;;;39.67;4.30;;;7.90;99.90;;;;;;5055390;28;20189;-84
2023/12/12 08:46:28;;;;;;;34.17;4.25;;;7.90;99.90;;;;;;5056008;28;20573;-84
2023/12/12 08:48:55;;;;;;;29.45;3.58;;;7.90;99.90;;;;;;5038140;28;20222;-84
2023/12/12 08:51:21;;;;;;;37.10;4.30;;;8.00;99.90;;;;;;5055117;28;20699;-84
2023/12/12 08:53:48;;;;;;;32.33;5.68;;;8.00;99.90;;;;;;5055395;28;20192;-84
2023/12/12 08:56:14;;;;;;;29.23;3.72;;;8.10;99.90;;;;;;5056010;28;20162;-84
2023/12/12 08:58:40;;;;;;;33.63;5.78;;;8.10;99.90;;;;;;5056048;28;20585;-84
2023/12/12 09:01:06;;;;;;;30.38;3.67;;;8.20;99.90;;;;;;5056053;28;20173;-84
2023/12/12 09:03:32;;;;;;;34.23;4.10;;;8.20;99.90;;;;;;5038231;28;20252;-84
2023/12/12 09:05:57;;;;;;;32.93;3.50;;;8.20;99.90;;;;;;5056496;28;20193;-84
2023/12/12 09:08:23;;;;;;;33.53;4.47;;;8.30;99.90;;;;;;5056472;28;20462;-84
2023/12/12 09:10:49;;;;;;;34.07;4.33;;;8.30;99.90;;;;;;5038421;28;20165;-84
2023/12/12 09:13:20;;;;;;;40.80;4.87;;;8.30;99.90;;;;;;5038145;28;20197;-84
2023/12/12 09:15:46;;;;;;;41.85;3.45;;;8.40;99.90;;;;;;5055604;28;20673;-84
2023/12/12 09:18:12;;;;;;;32.67;4.07;;;8.40;99.90;;;;;;5055480;28;20248;-84
2023/12/12 09:20:37;;;;;;;37.33;5.40;;;8.40;99.90;;;;;;5037929;28;20639;-83
2023/12/12 09:23:03;;;;;;;34.83;5.43;;;8.40;99.90;;;;;;5034918;28;20259;-83
2023/12/12 09:25:28;;;;;;;32.57;3.70;;;8.50;99.90;;;;;;5034999;28;20737;-83
2023/12/12 09:27:54;;;;;;;32.20;3.60;;;8.50;99.90;;;;;;5038083;28;20208;-84
2023/12/12 09:30:20;;;;;;;34.97;5.23;;;8.60;99.90;;;;;;5055616;28;20192;-84
2023/12/12 09:32:46;;;;;;;35.50;3.97;;;8.60;99.90;;;;;;5056540;28;20261;-84
2023/12/12 09:35:11;;;;;;;33.03;4.53;;;8.70;99.90;;;;;;5056471;28;20190;-84
2023/12/12 09:37:37;;;;;;;31.07;4.60;;;8.80;99.90;;;;;;5056517;28;20169;-84
2023/12/12 09:40:08;;;;;;;33.07;3.70;;;8.90;99.90;;;;;;5059940;28;20516;-84
2023/12/12 09:42:35;;;;;;;35.65;3.95;;;8.90;99.90;;;;;;5041115;28;20681;-84
2023/12/12 09:45:07;;;;;;;39.88;4.50;;;9.00;99.90;;;;;;5059002;28;20204;-84
2023/12/12 09:47:33;;;;;;;39.85;4.53;;;9.00;99.90;;;;;;5059292;28;20183;-84
2023/12/12 09:49:59;;;;;;;33.72;4.05;;;9.00;99.90;;;;;;5059572;28;20195;-84
2023/12/12 09:52:28;;;;;;;33.33;4.17;;;9.00;99.90;;;;;;5041157;28;20169;-84
2023/12/12 09:54:55;;;;;;;36.45;4.68;;;9.00;99.90;;;;;;5059085;28;20510;-84
2023/12/12 09:57:21;;;;;;;28.92;3.70;;;9.10;99.90;;;;;;5059025;28;20157;-84
2023/12/12 09:59:47;;;;;;;36.97;4.57;;;9.10;99.90;;;;;;5058774;28;20532;-84
2023/12/12 10:02:19;;;;;;;31.43;4.03;;;9.10;99.90;;;;;;5059090;28;20173;-84
2023/12/12 10:04:45;;;;;;;29.75;4.40;;;9.20;99.90;;;;;;5059049;28;20239;-84
2023/12/12 10:07:17;;;;;;;33.50;3.83;;;9.20;99.90;;;;;;5040720;28;20195;-85
2023/12/12 10:09:43;;;;;;;32.00;4.47;;;9.30;99.90;;;;;;5040798;28;20268;-84
2023/12/12 10:12:08;;;;;;;30.80;4.10;;;9.40;99.90;;;;;;5058281;28;20158;-84
2023/12/12 10:14:43;;;;;;;29.80;3.87;;;9.30;99.90;;;;;;5058032;28;20189;-84
2023/12/12 10:17:14;;;;;;;32.63;5.25;;;9.30;99.90;;;;;;5057656;28;20156;-85
2023/12/12 10:19:40;;;;;;;35.75;5.07;;;9.30;99.90;;;;;;5058303;28;20507;-84
2023/12/12 10:24:41;;;;;;;28.00;3.78;;;9.40;99.90;;;;;;5253334;22;20274;-84
2023/12/12 10:29:40;;;;;;;37.13;5.18;;;9.40;99.90;;;;;;5074007;28;20224;-84
2023/12/12 10:32:06;;;;;;;28.17;3.90;;;9.40;99.90;;;;;;5077261;28;20164;-84
2023/12/12 10:34:32;;;;;;;30.67;3.67;;;9.40;99.90;;;;;;5077262;28;20237;-84
2023/12/12 10:37:01;;;;;;;31.47;4.23;;;9.40;99.90;;;;;;5077394;28;20161;-84
2023/12/12 10:39:30;;;;;;;32.75;4.00;;;9.50;99.90;;;;;;5077969;28;20614;-84
2023/12/12 10:41:56;;;;;;;33.03;4.43;;;9.50;99.90;;;;;;5077053;28;20641;-84
2023/12/12 10:44:35;;;;;;;35.30;4.97;;;9.50;99.90;;;;;;5076999;28;20184;-84
2023/12/12 10:47:03;;;;;;;35.80;4.22;;;9.40;99.90;;;;;;5076689;28;20468;-83
2023/12/12 10:49:32;;;;;;;32.10;4.47;;;9.40;99.90;;;;;;5057465;28;20533;-82
2023/12/12 10:52:08;;;;;;;33.75;4.00;;;9.50;99.90;;;;;;5056876;28;20177;-82
2023/12/12 10:54:36;;;;;;;30.08;3.85;;;9.50;99.90;;;;;;5074954;28;20185;-82
2023/12/12 10:57:02;;;;;;;31.02;3.92;;;9.50;99.90;;;;;;5075292;28;20183;-83
2023/12/12 10:59:29;;;;;;;31.73;5.15;;;9.60;99.90;;;;;;5075081;28;20169;-83
2023/12/12 11:01:57;;;;;;;40.70;4.78;;;9.70;99.90;;;;;;5075438;28;20173;-83
2023/12/12 11:04:24;;;;;;;31.08;4.03;;;9.70;99.90;;;;;;5075550;28;20215;-83
2023/12/12 11:06:59;;;;;;;44.85;5.10;;;9.70;99.90;;;;;;5075715;28;20215;-83
2023/12/12 11:09:25;;;;;;;29.27;4.10;;;9.50;99.90;;;;;;5075978;28;20193;-83
2023/12/12 11:11:53;;;;;;;30.38;3.15;;;9.40;99.90;;;;;;5075881;28;20243;-83
2023/12/12 11:14:22;;;;;;;33.05;4.35;;;9.40;99.90;;;;;;5057270;28;20207;-83
2023/12/12 11:16:48;;;;;;;38.03;4.60;;;9.30;99.90;;;;;;5076399;28;20629;-82
2023/12/12 11:19:18;;;;;;;33.03;4.90;;;9.30;99.90;;;;;;5076022;28;20536;-82
2023/12/12 11:21:45;;;;;;;32.20;4.75;;;9.30;99.90;;;;;;5057793;28;20165;-82
2023/12/12 11:24:11;;;;;;;31.92;5.07;;;9.40;99.90;;;;;;5075331;28;20180;-82
2023/12/12 11:26:44;;;;;;;33.83;4.72;;;9.40;99.90;;;;;;5057007;28;20196;-82
2023/12/12 11:29:15;;;;;;;36.40;4.53;;;9.40;99.90;;;;;;5056496;28;20180;-83
2023/12/12 11:32:03;;;;;;;35.40;3.60;;;9.40;99.90;;;;;;5075861;28;20224;-83
2023/12/12 11:34:36;;;;;;;29.75;4.22;;;9.40;99.90;;;;;;5074772;28;20283;-83
2023/12/12 11:37:02;;;;;;;34.55;5.20;;;9.40;99.90;;;;;;5075325;28;20156;-83
2023/12/12 11:39:31;;;;;;;35.00;5.03;;;9.40;99.90;;;;;;5074944;28;20160;-83
2023/12/12 11:42:01;;;;;;;34.03;4.85;;;9.50;99.90;;;;;;5075649;28;20445;-83
2023/12/12 11:44:41;;;;;;;41.35;4.10;;;9.60;99.90;;;;;;5056799;28;20241;-83
2023/12/12 11:47:30;;;;;;;31.10;4.55;;;9.70;99.90;;;;;;5074092;28;20218;-83
2023/12/12 11:50:16;;;;;;;33.45;4.60;;;9.70;99.90;;;;;;5046393;28;20204;-83
2023/12/12 11:52:43;;;;;;;31.60;4.72;;;9.70;99.90;;;;;;5074198;28;20613;-84
2023/12/12 11:55:19;;;;;;;33.35;4.72;;;9.70;99.90;;;;;;5073990;28;20188;-83
2023/12/12 11:57:46;;;;;;;37.47;5.07;;;9.80;99.90;;;;;;5074548;28;20186;-84
2023/12/12 12:00:17;;;;;;;44.10;4.30;;;9.80;99.90;;;;;;5074744;28;20247;-83
2023/12/12 12:02:45;;;;;;;37.35;4.93;;;9.80;99.90;;;;;;5056745;28;20207;-84
2023/12/12 12:05:11;;;;;;;39.10;4.40;;;9.80;99.90;;;;;;5074698;28;20220;-83
2023/12/12 12:07:38;;;;;;;33.93;4.10;;;9.90;99.90;;;;;;5075001;28;20217;-84
2023/12/12 12:10:05;;;;;;;29.70;3.85;;;9.80;99.90;;;;;;5057769;28;20175;-84
2023/12/12 12:12:40;;;;;;;29.80;3.92;;;9.80;99.90;;;;;;5074982;28;20235;-84
2023/12/12 12:15:08;;;;;;;38.45;5.03;;;9.70;99.90;;;;;;5057354;28;20188;-84
2023/12/12 12:17:37;;;;;;;33.28;3.75;;;9.70;99.90;;;;;;5076011;28;20161;-84
2023/12/12 12:20:09;;;;;;;39.60;5.15;;;9.70;99.90;;;;;;5075000;28;20167;-84
2023/12/12 12:22:39;;;;;;;38.83;5.28;;;9.60;99.90;;;;;;5074323;28;20161;-82
2023/12/12 12:25:06;;;;;;;32.00;4.70;;;9.60;99.90;;;;;;5073599;28;20665;-81
2023/12/12 12:27:33;;;;;;;33.03;4.60;;;9.70;99.90;;;;;;5056159;28;20199;-79
2023/12/12 12:30:00;;;;;;;33.58;3.70;;;9.70;99.90;;;;;;5076713;28;20156;-80
2023/12/12 12:32:26;;;;;;;34.53;4.90;;;9.60;99.90;;;;;;5059276;28;20172;-81
2023/12/12 12:35:12;;;;;;;33.37;5.87;;;9.60;99.90;;;;;;5076848;28;20176;-81
2023/12/12 12:37:39;;;;;;;33.42;5.15;;;9.60;99.90;;;;;;5056779;28;20245;-83
2023/12/12 12:40:10;;;;;;;36.17;7.05;;;9.60;99.90;;;;;;5074582;28;20167;-83
2023/12/12 12:42:38;;;;;;;36.03;5.82;;;9.60;99.90;;;;;;5056843;28;20176;-82
2023/12/12 12:45:07;;;;;;;32.45;5.43;;;9.60;99.90;;;;;;5074390;28;20184;-82
2023/12/12 12:47:33;;;;;;;39.92;6.20;;;9.60;99.90;;;;;;5056013;28;20199;-83
2023/12/12 12:49:59;;;;;;;30.20;4.30;;;9.60;99.90;;;;;;5056576;28;20625;-83
2023/12/12 12:52:25;;;;;;;44.33;4.93;;;9.70;99.90;;;;;;5074708;28;20399;-83
2023/12/12 12:54:51;;;;;;;41.28;5.70;;;9.80;99.90;;;;;;5056079;28;20517;-83
2023/12/12 12:57:17;;;;;;;38.67;5.77;;;9.90;99.90;;;;;;5056439;28;20613;-82
2023/12/12 12:59:43;;;;;;;31.77;3.90;;;9.90;99.90;;;;;;5056457;28;20180;-83